METAR rapporten vliegvelden

   
EHVK - Volkel Rnlafb, Netherlands
Afstand tot: ZW 18 km
Gewijzigd: 11-04-2021 06:26
Lichte (mot)regen, Bewolking  
Lichte (mot)regen, Bewolking  
   Wind: NNW 13 km/h
Wind: NNW 13 km/h
Temperatuur: 3°C
Voelt als: -1°C
Dauwpunt: 2°C
Vochtigheid: 93%
Barometer: 1008 hPa
Bewolking: Bewolking
Zicht: meer dan 10 km
Bewolking: Grotendeels bewolkt 600 ft,
Bewolking 700 ft
EHVK 110426Z AUTO 34007KT 310V010 9999 -DZ BKN006 OVC007 03/02 Q1008 YLO
EDLV - Niederrhein, Germany
Afstand tot: ZO 25 km
Gewijzigd: 11-04-2021 06:20
Wat regen mogelijk, Grotendeels bewolkt  
Wat regen mogelijk, Grotendeels bewolkt  
   Wind: NNW 9.3 km/h
Wind: NNW 9.3 km/h
Temperatuur: 3°C
Voelt als: 1°C
Dauwpunt: 3°C
Vochtigheid: 100%
Barometer: 1008 hPa
Bewolking: Grotendeels bewolkt
Zicht: 9 km
Bewolking: Grotendeels bewolkt 400 ft
EDLV 110420Z 33005KT 290V020 9000 -RA BKN004 03/03 Q1008
EHDL - Deelen Rnlafb, Netherlands
Afstand tot: N 35 km
Gewijzigd: 11-04-2021 06:25
Bewolking  
Bewolking  
   Wind: NNW 14.8 km/h
Wind: NNW 14.8 km/h
Temperatuur: 3°C
Voelt als: -1°C
Dauwpunt: 2°C
Vochtigheid: 93%
Barometer: 1008 hPa
Bewolking: Bewolking
Zicht: meer dan 10 km
Bewolking: Licht bewolkt 400 ft,
Grotendeels bewolkt 500 ft,
Bewolking 600 ft
EHDL 110425Z AUTO 34008KT 290V020 9999 FEW004 BKN005 OVC006 03/02 Q1008 YLO
EHEH - Eindhoven Rnlafb, Netherlands
Afstand tot: ZW 48 km
Gewijzigd: 11-04-2021 06:25
Motregen, Bewolking  
Motregen, Bewolking  
   Wind: NNW 13 km/h
Wind: NNW 13 km/h
Temperatuur: 3°C
Voelt als: -1°C
Dauwpunt: 2°C
Vochtigheid: 93%
Barometer: 1009 hPa
Bewolking: Bewolking
Zicht: meer dan 10 km
Bewolking: Grotendeels bewolkt 600 ft,
Bewolking 700 ft
EHEH 110425Z AUTO 34007KT 300V020 9999 DZ BKN006 OVC007 03/02 Q1009 YLO TEMPO BKN003 BKN005
EHGR - Gilze-Rijen Rnla, Netherlands
Afstand tot: WZW 70 km
Gewijzigd: 11-04-2021 06:43
Motregen, Regen, Bewolking  
Motregen, Regen, Bewolking  
   Wind: NNW 18.5 km/h
Wind: NNW 18.5 km/h
Temperatuur: 3°C
Voelt als: -1°C
Dauwpunt: 2°C
Vochtigheid: 93%
Barometer: 1010 hPa
Bewolking: Bewolking
Zicht: meer dan 10 km
Bewolking: Licht bewolkt 600 ft,
Grotendeels bewolkt 700 ft,
Bewolking 800 ft
EHGR 110443Z AUTO 34010KT 290V040 9999 DZRA FEW006 BKN007 OVC008 03/02 Q1010 GRN
EBBL - Kleine-Brogel(Ba, Belgium
Afstand tot: ZZW 71 km
Gewijzigd: 11-04-2021 06:25
Wat regen mogelijk, Bewolking  
Wat regen mogelijk, Bewolking  
   Wind: NNW 9.3 km/h
Wind: NNW 9.3 km/h
Temperatuur: 2°C
Voelt als: -1°C
Dauwpunt: 2°C
Vochtigheid: 100%
Barometer: 1009 hPa
Bewolking: Bewolking
Zicht: 8 km
Bewolking: Bewolking 300 ft
EBBL 110425Z AUTO 33005KT 8000 -RA OVC003/// 02/02 Q1009 YLO

Script ontwikkeld door  Saratoga-weather.org Aangepast voor de template door  Weerstation Leuven